Canfield, OH

1:15 AM EDT on July 08, 2015 (GMT -0400)
Fred Martin Computers | | Change Station
CLOSE
Current Station
Personal Weather Station
Location: Youngstown, OH
Elevation: 1004 ft
Nearby Weather Stations

Elev 1004 ft 41.05 °N, 80.69 °W | Updated 1 second ago

Overcast
Overcast
63.2 °F
Feels Like 63.2 °F
N
1.0
Wind Variable Wind from NW
Gusts 7.0 mph

Today
High -- | Low -- °F
--% Chance of Precip.
Yesterday
High -- | Low -- °F
Precip. -- in
5:58 AM 8:57 PM
Waning Gibbous, 57% visible
Pressure 29.98 in
Visibility 1.0 miles
Clouds Overcast 200 ft
Dew Point 62 °F
Humidity 95%
Rainfall 0.00 in
Snow Depth Not available.
UV 0 out of 12
Pollen 3.20 out of 12
Air Quality Not available.
Flu Activity Not available.
METAR KYNG 080451Z 33009KT 1SM -DZ BR OVC002 17/17 A3000 RMK AO2 RAE10DZB10 SLP151 P0000 T01720167 402890172 $

More Conditions Fewer Conditions

Pressure 29.98 in
Visibility 1.0 miles
Clouds Overcast 200 ft
Dew Point 62 °F
Humidity 95%
Rainfall 0.00 in
Snow Depth Not available.
UV 0 out of 12
Pollen 3.20 out of 12
Air Quality Not available.
Flu Activity Not available.
METAR KYNG 080451Z 33009KT 1SM -DZ BR OVC002 17/17 A3000 RMK AO2 RAE10DZB10 SLP151 P0000 T01720167 402890172 $

More Conditions Fewer Conditions

10-Day Weather Forecast

×

Almanac

Astronomy

Jul. 08, 2015 Rise Set
Actual Time
Civil Twilight
Nautical Twilight
Astronomical Twilight
Moon
Length of Visible Light
Length of Day
Tomorrow will be .
, % of the Moon is Illuminated

Today's Extremes

State Highs State Lows

Community

WunderPhotos

Upload Photos

1,836,057 photos uploaded!

WunderBlogs® & News

Nearby

Air Quality

  Air Quality AQ Index Pollutant
Not available.

Snow Depth

Station Depth Elevation

Earthquake Activity

City Distance Mag. Time & Date
Minimum magnitude displayed is 2.5.

Coastal Water Temperatures

Place Temperature

Stations

Nearby Weather Stations

Station Location Temp. Windchill Dew Point Humidity Wind Precip. Elev Updated Type